메인 페이지
METAR-TAF:

METAR-TAF

공항 :

댈러스 포트워스 국제공항

댈러스 / 포트워스, 텍사스, 미국

위도: 32-53-49N, 경도: 097-01-19W, 고도: 183m

현재 날씨관측

예보는 26분 전, 00:53시(UTC)에 발표되었습니다.
남남서9kt
온도 39°C
습도 23%
기압 1011 hPa
시정: 16.1km
고도 30000ft 상공 구름 많음

METAR: KDFW 220053Z 21009KT 10SM BKN300 39/14 A2985 RMK AO2 SLP096 T03940139

시각: 20:19 (01:19 UTC)

예보

예보는 1 시간 59분 전, 23:20시(UTC)에 발표되었습니다.
예보 대상 시간: 22일 00시부터 23일 06시까지 (UTC)
9kt
시정: 10km
고도 30000ft 상공 구름 조금
22일 1200시부터 (UTC)
7kt
시정: 10km
고도 30000ft 상공 구름 많음
22일 2100시부터 (UTC)
여러 방향의 바람 3kt
시정: 10km
고도 20000ft 상공 구름 조금
고도 30000ft 상공 구름 보통

TAF: KDFW 212320Z 2200/2306 19009KT P6SM FEW300 FM221200 26007KT P6SM BKN300 FM222100 VRB03KT P6SM FEW200 SCT300

4,000개 이상의 공항 관측 자료 및 예보 (METAR 및 TAF 보고).

지도상에서 검색 가능한 기상관측소가 노란 점과 빨간 점으로 표시되어 있습니다.

기상관측소 명을 보려면 표시 위로 마우스를 이동하세요.

날씨 관측과 예보를 보려면 클릭하세요.

지도 변경 : 확대하려면 엑스 표시가 있는 녹색 버튼, 축소하려면 빼기 표시가 있는 녹색 버튼, 다음 페이지의 지도를 보려면 녹색 화살표를 클릭하세요.


METAR-TAF: